Weather History for Windom, MN

Change the Weather History Date:

Tuesday, January 14, 2014

  Actual Average Record
Temperature  
Mean Temperature 22 °F -  
Max Temperature 35 °F 25 °F 57 °F (1987)
Min Temperature 10 °F 5 °F -26 °F (1972)
Degree Days  
Heating Degree Days 42    
Moisture  
Dew Point 16 °F    
Average Humidity 83    
Maximum Humidity 100    
Minimum Humidity 73    
Precipitation  
Precipitation 0.06 in - - ()
Sea Level Pressure  
Sea Level Pressure 29.89 in    
Wind  
Wind Speed 25 mph (NW)    
Max Wind Speed 43 mph    
Max Gust Speed 54 mph    
Visibility 7 miles    
Events Snow    
Averages and records for this station are not official NWS values.
T = Trace of Precipitation, MM = Missing Value Source: NWS Daily Summary

Daily Weather History Graph

Daily Weather History Graph

Search for Another Location

Airport:

Trip Planner

Search our weather history database for the weather conditions in past years. The results will help you decide how hot, cold, wet, or windy it might be!

Date:

Astronomy

Jan. 14, 2014 Rise Set
Actual Time 7:52 AM CST 5:07 PM CST
Civil Twilight 7:20 AM CST 5:39 PM CST
Nautical Twilight 6:44 AM CST 6:15 PM CST
Astronomical Twilight 6:09 AM CST 6:49 PM CST
Moon 4:14 PM CST (1/14) 6:26 AM CST (1/14)
Length of Visible Light 10h 19m
Length of Day
9h 15m
Waxing Gibbous, 98% of the Moon is Illuminated
Jan 14
Waxing Gibbous
Jan 15
Full
Jan 23
Last Quarter
Jan 30
New
Feb 6
First Quarter

Hourly Weather History & Observations

Time (CST) Temp. Windchill Dew Point Humidity Pressure Visibility Wind Dir Wind Speed Gust Speed Precip Events Conditions
12:12 AM 33.8 °F 27.7 °F 30.2 °F 87% 29.47 in 7.0 mi SW 6.9 mph - 0.01 in   Overcast
12:33 AM 33.8 °F 27.7 °F 30.2 °F 87% 29.47 in 5.0 mi West 6.9 mph - 0.01 in   Overcast
12:52 AM 33.8 °F 26.4 °F 32.0 °F 93% 29.46 in 7.0 mi West 9.2 mph - 0.02 in   Overcast
1:12 AM 35.6 °F 27.1 °F 33.8 °F 93% 29.48 in 5.0 mi West 12.7 mph - 0.01 in   Overcast
1:33 AM 33.8 °F 22.8 °F 33.8 °F 100% 29.49 in 3.0 mi WNW 18.4 mph - 0.02 in Snow Light Snow
1:52 AM 33.8 °F 22.8 °F 33.8 °F 100% 29.50 in 3.0 mi WNW 18.4 mph - 0.03 in Snow Light Snow
2:12 AM 33.8 °F 21.9 °F 33.8 °F 100% 29.51 in 3.0 mi WNW 21.9 mph - 0.01 in   Overcast
2:33 AM 35.6 °F 23.7 °F 33.8 °F 93% 29.52 in 10.0 mi WNW 24.2 mph 34.5 mph 0.01 in   Overcast
2:52 AM 35.6 °F 22.1 °F 30.2 °F 81% 29.54 in 10.0 mi WNW 32.2 mph 44.9 mph 0.01 in   Overcast
3:12 AM 33.8 °F 19.6 °F 30.2 °F 87% 29.57 in 10.0 mi WNW 32.2 mph 44.9 mph N/A   Mostly Cloudy
3:33 AM 32.0 °F 17.2 °F 28.4 °F 87% 29.58 in 10.0 mi NW 32.2 mph 46.0 mph N/A   Overcast
3:53 AM 30.2 °F 13.1 °F 26.6 °F 86% 29.60 in 10.0 mi NW 41.4 mph 52.9 mph N/A   Overcast
4:12 AM 30.2 °F 13.5 °F 24.8 °F 80% 29.61 in 10.0 mi NW 39.1 mph 51.8 mph N/A   Overcast
4:33 AM 28.4 °F 11.6 °F 24.8 °F 86% 29.63 in 10.0 mi NW 35.7 mph 48.3 mph N/A   Overcast
4:53 AM 28.4 °F 10.8 °F 24.8 °F 86% 29.65 in 10.0 mi NW 40.3 mph 54.1 mph N/A   Overcast
5:12 AM 26.6 °F 7.9 °F 23.0 °F 86% 29.67 in 10.0 mi NW 42.6 mph 50.6 mph N/A   Overcast
5:33 AM 26.6 °F 9.3 °F 21.2 °F 80% 29.69 in 10.0 mi NW 34.5 mph 46.0 mph N/A   Overcast
5:52 AM 26.6 °F 9.8 °F 21.2 °F 80% 29.71 in 10.0 mi NW 32.2 mph 44.9 mph N/A   Overcast
6:13 AM 24.8 °F 5.7 °F 19.4 °F 80% 29.73 in 10.0 mi NW 40.3 mph 52.9 mph N/A   Overcast
6:32 AM 24.8 °F 5.7 °F 19.4 °F 80% 29.74 in 10.0 mi NW 40.3 mph 48.3 mph N/A   Overcast
6:53 AM 23.0 °F 4.4 °F 19.4 °F 86% 29.76 in 10.0 mi NW 34.5 mph 44.9 mph N/A   Overcast
7:13 AM 23.0 °F 4.9 °F 19.4 °F 86% 29.77 in 2.5 mi NW 32.2 mph 38.0 mph N/A Snow Light Snow
7:32 AM 23.0 °F 3.9 °F 19.4 °F 86% 29.78 in 5.0 mi NW 36.8 mph 42.6 mph N/A Snow Light Snow
7:53 AM 23.0 °F 4.9 °F 17.6 °F 80% 29.79 in 10.0 mi NW 32.2 mph 40.3 mph N/A Snow Light Snow
8:13 AM 23.0 °F 4.6 °F 17.6 °F 80% 29.80 in 10.0 mi NW 33.4 mph 41.4 mph N/A Snow Light Snow
8:32 AM 21.2 °F 1.9 °F 17.6 °F 86% 29.82 in 0.8 mi NW 34.5 mph 47.2 mph N/A Snow Light Snow
8:53 AM 21.2 °F 2.7 °F 17.6 °F 86% 29.83 in 7.0 mi NW 31.1 mph 42.6 mph N/A Snow Light Snow
9:13 AM 21.2 °F 3.3 °F 17.6 °F 86% 29.84 in 0.8 mi NW 28.8 mph 41.4 mph N/A Snow Light Snow
9:32 AM 21.2 °F 1.2 °F 15.8 °F 80% 29.85 in 2.0 mi NW 38.0 mph 51.8 mph N/A Snow Light Snow
9:53 AM 19.4 °F 0.2 °F 15.8 °F 86% 29.87 in 2.5 mi NW 31.1 mph 40.3 mph N/A Snow Light Snow
10:13 AM 19.4 °F 0.2 °F 15.8 °F 86% 29.89 in 5.0 mi NW 31.1 mph 35.7 mph N/A Snow Light Snow
10:32 AM 19.4 °F -0.3 °F 15.8 °F 86% 29.90 in 5.0 mi NW 33.4 mph 38.0 mph N/A Snow Light Snow
10:53 AM 19.4 °F 0.5 °F 14.0 °F 80% 29.92 in 3.0 mi NW 29.9 mph 38.0 mph N/A Snow Light Snow
11:13 AM 19.4 °F 1.1 °F 15.8 °F 86% 29.92 in 1.8 mi NW 27.6 mph 35.7 mph N/A Snow Light Snow
11:32 AM 19.4 °F 1.1 °F 15.8 °F 86% 29.93 in 1.8 mi NW 27.6 mph 34.5 mph N/A Snow Light Snow
11:53 AM 19.4 °F 1.4 °F 15.8 °F 86% 29.93 in 1.0 mi NW 26.5 mph 38.0 mph N/A Snow Light Snow
12:12 PM 17.6 °F -2.5 °F 14.0 °F 86% 29.94 in 1.0 mi NW 32.2 mph 39.1 mph N/A Snow Light Snow
12:32 PM 17.6 °F -3.1 °F 12.2 °F 79% 29.94 in 1.2 mi NW 34.5 mph 40.3 mph N/A Snow Light Snow
12:53 PM 19.4 °F 0.2 °F 14.0 °F 80% 29.94 in 1.2 mi NW 31.1 mph 38.0 mph N/A Snow Light Snow
1:12 PM 19.4 °F -0.0 °F 14.0 °F 80% 29.95 in 1.8 mi NW 32.2 mph 39.1 mph N/A Snow Light Snow
1:32 PM 17.6 °F -1.6 °F 12.2 °F 79% 29.96 in 3.0 mi NW 28.8 mph 38.0 mph N/A Snow Light Snow
1:53 PM 17.6 °F -3.6 °F 12.2 °F 79% 29.98 in 7.0 mi NW 36.8 mph 41.4 mph N/A   Overcast
2:12 PM 17.6 °F -1.3 °F 12.2 °F 79% 29.99 in 7.0 mi NW 27.6 mph 39.1 mph N/A   Overcast
2:32 PM 17.6 °F -1.3 °F 12.2 °F 79% 30.00 in 10.0 mi NW 27.6 mph 32.2 mph N/A Snow Light Snow
2:53 PM 17.6 °F -2.5 °F 12.2 °F 79% 30.01 in 7.0 mi NW 32.2 mph 35.7 mph N/A Snow Light Snow
3:12 PM 17.6 °F -3.3 °F 12.2 °F 79% 30.02 in 7.0 mi NW 35.7 mph 40.3 mph N/A   Overcast
3:32 PM 17.6 °F -2.2 °F 12.2 °F 79% 30.04 in 10.0 mi NW 31.1 mph 36.8 mph N/A   Overcast
3:53 PM 17.6 °F -1.0 °F 10.4 °F 73% 30.06 in 10.0 mi NW 26.5 mph 42.6 mph N/A Snow Light Snow
4:12 PM 17.6 °F -2.2 °F 10.4 °F 73% 30.07 in 10.0 mi NW 31.1 mph 39.1 mph N/A   Overcast
4:32 PM 15.8 °F -3.7 °F 10.4 °F 79% 30.07 in 10.0 mi NW 27.6 mph 38.0 mph N/A   Overcast
4:53 PM 15.8 °F -3.1 °F 10.4 °F 79% 30.08 in 7.0 mi NW 25.3 mph 34.5 mph N/A Snow Light Snow
5:12 PM 15.8 °F -5.0 °F 10.4 °F 79% 30.08 in 7.0 mi NW 32.2 mph 35.7 mph N/A   Overcast
5:33 PM 15.8 °F -3.4 °F 8.6 °F 73% 30.10 in 10.0 mi NW 26.5 mph 36.8 mph N/A   Overcast
5:52 PM 14.0 °F -6.2 °F 8.6 °F 79% 30.10 in 10.0 mi NW 27.6 mph - N/A   Overcast
6:13 PM 14.0 °F -7.4 °F 8.6 °F 79% 30.11 in 10.0 mi NW 32.2 mph 36.8 mph N/A   Overcast
6:33 PM 14.0 °F -6.5 °F 6.8 °F 73% 30.12 in 10.0 mi NW 28.8 mph 34.5 mph N/A   Overcast
6:52 PM 12.2 °F -7.5 °F 6.8 °F 79% 30.13 in 10.0 mi NW 24.2 mph - N/A   Overcast
7:13 PM 12.2 °F -8.2 °F 6.8 °F 79% 30.13 in 10.0 mi NW 26.5 mph 34.5 mph N/A   Overcast
7:33 PM 12.2 °F -8.2 °F 6.8 °F 79% 30.14 in 10.0 mi NW 26.5 mph 34.5 mph N/A   Overcast
7:52 PM 12.2 °F -7.5 °F 6.8 °F 79% 30.14 in 10.0 mi NW 24.2 mph 28.8 mph N/A   Overcast
8:13 PM 12.2 °F -7.5 °F 6.8 °F 79% 30.14 in 10.0 mi NNW 24.2 mph 31.1 mph N/A   Overcast
8:32 PM 12.2 °F -7.5 °F 6.8 °F 79% 30.13 in 10.0 mi NW 24.2 mph 32.2 mph N/A   Mostly Cloudy
8:53 PM 12.2 °F -7.5 °F 6.8 °F 79% 30.14 in 10.0 mi NW 24.2 mph 29.9 mph N/A   Overcast
9:13 PM 12.2 °F -6.7 °F 6.8 °F 79% 30.14 in 10.0 mi NW 21.9 mph 27.6 mph N/A   Overcast
9:32 PM 10.4 °F -10.3 °F 6.8 °F 85% 30.13 in 10.0 mi NW 25.3 mph 29.9 mph N/A   Scattered Clouds
9:53 PM 10.4 °F -8.2 °F 6.8 °F 85% 30.14 in 10.0 mi NW 19.6 mph - N/A   Mostly Cloudy
10:13 PM 10.4 °F -9.1 °F 6.8 °F 85% 30.14 in 10.0 mi NW 21.9 mph 27.6 mph N/A   Overcast
10:32 PM 10.4 °F -10.3 °F 6.8 °F 85% 30.14 in 10.0 mi NW 25.3 mph 28.8 mph N/A   Overcast
10:53 PM 10.4 °F -7.7 °F 6.8 °F 85% 30.14 in 10.0 mi NW 18.4 mph 28.8 mph N/A   Overcast
11:13 PM 10.4 °F -9.1 °F 6.8 °F 85% 30.13 in 10.0 mi NW 21.9 mph - N/A   Overcast
11:32 PM 10.4 °F -9.1 °F 6.8 °F 85% 30.14 in 10.0 mi NW 21.9 mph - N/A   Overcast
11:53 PM 10.4 °F -9.5 °F 6.8 °F 85% 30.14 in 10.0 mi NNW 23.0 mph - N/A   Overcast